createdAt,value
2022-08-08T00:00:56.576Z,0.50
2022-08-08T00:02:43.384Z,0.60
2022-08-08T00:05:14.748Z,0.70
2022-08-08T00:07:48.308Z,1.00
2022-08-08T00:10:17.764Z,0.70
2022-08-08T00:12:57.690Z,0.80
2022-08-08T00:15:56.532Z,0.70
2022-08-08T00:18:20.160Z,1.30
2022-08-08T00:20:51.717Z,0.90
2022-08-08T00:23:22.296Z,1.23
2022-08-08T00:25:58.419Z,1.10
2022-08-08T00:28:35.181Z,0.83
2022-08-08T00:32:19.910Z,0.80
2022-08-08T00:34:20.047Z,0.90
2022-08-08T00:36:51.575Z,0.80
2022-08-08T00:41:11.593Z,0.70
2022-08-08T00:42:33.247Z,0.37
2022-08-08T00:45:21.680Z,0.77
2022-08-08T00:48:29.771Z,0.70
2022-08-08T00:51:38.264Z,0.70
2022-08-08T00:54:18.407Z,0.47
2022-08-08T00:57:00.494Z,0.57
2022-08-08T00:59:58.758Z,0.60
2022-08-08T01:03:57.905Z,1.37
2022-08-08T01:06:01.633Z,0.60
2022-08-08T01:08:38.805Z,0.40
2022-08-08T01:11:37.615Z,0.70
2022-08-08T01:14:54.892Z,0.83
2022-08-08T01:17:51.421Z,0.73
2022-08-08T01:20:44.369Z,0.70
2022-08-08T01:24:05.819Z,0.80
2022-08-08T01:26:24.974Z,0.60
2022-08-08T01:29:05.743Z,0.87
2022-08-08T01:32:06.488Z,0.70
2022-08-08T01:34:54.461Z,0.73
2022-08-08T01:37:56.900Z,0.70
2022-08-08T01:40:22.911Z,0.70
2022-08-08T01:42:55.444Z,0.57
2022-08-08T01:45:29.188Z,0.77
2022-08-08T01:48:16.658Z,0.80
2022-08-08T01:50:54.815Z,1.57
2022-08-08T01:54:03.908Z,0.80
2022-08-08T01:56:28.601Z,0.90
2022-08-08T01:59:04.496Z,0.63
2022-08-08T02:02:00.596Z,0.70
2022-08-08T02:04:30.755Z,0.63
2022-08-08T02:07:01.150Z,1.17
2022-08-08T02:10:01.948Z,0.53
2022-08-08T02:12:24.592Z,1.10
2022-08-08T02:14:59.124Z,1.10
2022-08-08T02:17:36.580Z,1.50
2022-08-08T02:20:16.109Z,1.60
2022-08-08T02:23:04.357Z,1.40
2022-08-08T02:25:48.322Z,1.43
2022-08-08T02:28:18.466Z,1.73
2022-08-08T02:30:50.053Z,2.27
2022-08-08T02:34:00.431Z,2.77
2022-08-08T02:36:28.617Z,3.30
2022-08-08T02:39:01.526Z,3.83
2022-08-08T02:42:08.029Z,3.43
2022-08-08T02:44:57.826Z,2.77
2022-08-08T02:48:00.403Z,2.90
2022-08-08T02:50:39.834Z,2.67
2022-08-08T02:53:12.842Z,2.80
2022-08-08T02:56:04.185Z,3.50
2022-08-08T02:58:51.180Z,3.03
2022-08-08T03:01:50.038Z,2.70
2022-08-08T03:05:05.143Z,2.87
2022-08-08T03:07:41.117Z,2.63
2022-08-08T03:10:33.584Z,2.30
2022-08-08T03:13:34.083Z,2.40
2022-08-08T03:16:35.379Z,2.20
2022-08-08T03:19:17.869Z,3.00
2022-08-08T03:21:59.087Z,1.97
2022-08-08T03:24:29.602Z,1.90
2022-08-08T03:26:58.090Z,1.63
2022-08-08T03:29:54.457Z,1.47
2022-08-08T03:32:35.677Z,1.27
2022-08-08T03:35:10.170Z,1.27
2022-08-08T03:37:59.822Z,1.83
2022-08-08T03:40:30.618Z,1.23
2022-08-08T03:43:18.291Z,1.27
2022-08-08T03:46:05.064Z,1.30
2022-08-08T03:49:38.257Z,1.40
2022-08-08T03:51:35.387Z,1.53
2022-08-08T03:54:09.225Z,1.50
2022-08-08T03:56:38.907Z,1.67
2022-08-08T03:59:07.279Z,1.13
2022-08-08T04:02:12.502Z,1.30
2022-08-08T04:04:40.111Z,1.50
2022-08-08T04:07:10.504Z,1.53
2022-08-08T04:10:00.605Z,1.10
2022-08-08T04:12:33.069Z,1.10
2022-08-08T04:15:01.366Z,1.00
2022-08-08T04:17:46.708Z,1.10
2022-08-08T04:20:19.681Z,0.90
2022-08-08T04:22:57.030Z,0.87
2022-08-08T04:25:29.779Z,0.87
2022-08-08T04:28:34.184Z,0.80
2022-08-08T04:30:48.821Z,1.17
2022-08-08T04:33:17.179Z,1.00
2022-08-08T04:35:50.681Z,0.90
2022-08-08T04:38:21.452Z,1.00
2022-08-08T04:40:54.312Z,0.87
2022-08-08T04:43:32.483Z,0.70
2022-08-08T04:46:14.699Z,0.90
2022-08-08T04:48:43.451Z,0.93
2022-08-08T04:51:12.089Z,0.73
2022-08-08T04:54:27.325Z,0.93
2022-08-08T04:56:34.083Z,1.10
2022-08-08T04:59:03.743Z,1.07
2022-08-08T05:01:35.663Z,1.00
2022-08-08T05:04:17.623Z,0.60
2022-08-08T05:06:47.313Z,0.93
2022-08-08T05:09:18.927Z,0.80
2022-08-08T05:11:56.771Z,0.83
2022-08-08T05:14:29.367Z,0.70
2022-08-08T05:17:00.972Z,1.10
2022-08-08T05:20:09.733Z,0.70
2022-08-08T05:22:18.253Z,0.80
2022-08-08T05:24:48.505Z,1.03
2022-08-08T05:27:17.296Z,0.53
2022-08-08T05:29:50.393Z,1.20
2022-08-08T05:32:24.581Z,0.53
2022-08-08T05:34:55.276Z,0.70
2022-08-08T05:37:28.273Z,0.80
2022-08-08T05:44:40.425Z,0.63
2022-08-08T05:47:10.476Z,0.90
2022-08-08T05:49:53.967Z,1.10
2022-08-08T05:52:35.891Z,0.67
2022-08-08T05:55:09.710Z,1.07
2022-08-08T05:58:05.312Z,0.77
2022-08-08T06:00:27.471Z,0.70
2022-08-08T06:03:24.686Z,0.70
2022-08-08T06:05:56.580Z,0.40
2022-08-08T06:08:34.934Z,0.80
2022-08-08T06:11:04.272Z,0.50
2022-08-08T06:13:36.356Z,0.80
2022-08-08T06:16:16.494Z,0.50
2022-08-08T06:18:50.231Z,0.77
2022-08-08T06:21:32.812Z,0.90
2022-08-08T06:24:13.579Z,0.80
2022-08-08T06:26:52.847Z,0.60
2022-08-08T06:29:48.407Z,0.70
2022-08-08T06:32:15.289Z,0.60
2022-08-08T06:35:11.573Z,0.90
2022-08-08T06:37:37.286Z,0.67
2022-08-08T06:40:07.214Z,0.80
2022-08-08T06:42:38.796Z,0.83
2022-08-08T06:45:07.852Z,0.97
2022-08-08T06:47:52.686Z,0.80
2022-08-08T06:50:32.160Z,2.37
2022-08-08T06:53:09.841Z,1.33
2022-08-08T06:55:43.177Z,1.07
2022-08-08T06:58:11.727Z,1.30
2022-08-08T07:00:41.009Z,1.47
2022-08-08T07:03:52.701Z,1.70
2022-08-08T07:06:02.326Z,1.40
2022-08-08T07:08:31.345Z,1.70
2022-08-08T07:11:00.853Z,1.27
2022-08-08T07:13:31.425Z,1.40
2022-08-08T07:16:04.496Z,1.30
2022-08-08T07:18:40.748Z,1.30
2022-08-08T07:21:19.455Z,1.47
2022-08-08T07:24:01.198Z,1.20
2022-08-08T07:26:35.558Z,0.93
2022-08-08T07:29:08.286Z,1.00
2022-08-08T07:31:40.060Z,1.50
2022-08-08T07:34:08.966Z,1.10
2022-08-08T07:36:41.081Z,1.47
2022-08-08T07:39:16.817Z,1.23
2022-08-08T07:42:04.562Z,1.60
2022-08-08T07:44:37.506Z,1.40
2022-08-08T07:47:09.199Z,1.10
2022-08-08T07:49:40.198Z,0.97
2022-08-08T07:52:13.275Z,1.27
2022-08-08T07:54:53.485Z,1.17
2022-08-08T07:57:23.919Z,0.70
2022-08-08T07:59:56.090Z,1.57
2022-08-08T08:02:32.805Z,1.10
2022-08-08T08:05:03.672Z,1.00
2022-08-08T08:07:38.665Z,0.80
2022-08-08T08:10:07.945Z,1.20
2022-08-08T08:12:43.229Z,1.10
2022-08-08T08:15:15.644Z,0.90
2022-08-08T08:17:49.111Z,0.80
2022-08-08T08:20:18.040Z,0.80
2022-08-08T08:22:47.739Z,0.80
2022-08-08T08:25:16.736Z,1.00
2022-08-08T08:27:49.286Z,0.60
2022-08-08T08:30:19.355Z,0.50
2022-08-08T08:32:51.488Z,0.70
2022-08-08T08:35:21.626Z,0.67
2022-08-08T08:38:17.966Z,1.20
2022-08-08T08:40:48.731Z,0.90
2022-08-08T08:43:19.803Z,0.70
2022-08-08T08:45:49.099Z,1.50
2022-08-08T08:48:19.214Z,1.40
2022-08-08T08:50:48.367Z,1.30
2022-08-08T08:53:54.166Z,1.10
2022-08-08T08:56:10.168Z,1.27
2022-08-08T08:58:42.242Z,0.90
2022-08-08T09:01:13.417Z,0.90
2022-08-08T09:03:47.614Z,0.90
2022-08-08T09:06:28.583Z,1.10
2022-08-08T09:09:03.532Z,0.97
2022-08-08T09:11:47.348Z,0.90
2022-08-08T09:14:25.966Z,0.83
2022-08-08T09:16:55.437Z,1.00
2022-08-08T09:21:57.483Z,1.07
2022-08-08T09:22:12.356Z,1.00
2022-08-08T09:24:42.841Z,0.80
2022-08-08T09:27:20.064Z,0.67
2022-08-08T09:29:53.079Z,1.23
2022-08-08T09:32:31.893Z,0.67
2022-08-08T09:35:05.199Z,0.60
2022-08-08T09:38:00.739Z,0.50
2022-08-08T09:40:47.733Z,0.80
2022-08-08T09:43:40.369Z,1.13
2022-08-08T09:46:11.243Z,0.63
2022-08-08T09:48:50.226Z,0.50
2022-08-08T09:51:18.695Z,0.73
2022-08-08T09:54:03.336Z,0.40
2022-08-08T09:56:41.234Z,0.70
2022-08-08T09:59:50.592Z,0.50
2022-08-08T10:02:12.791Z,0.70
2022-08-08T10:04:47.707Z,0.80
2022-08-08T10:07:16.910Z,0.90
2022-08-08T10:10:00.790Z,0.80
2022-08-08T10:12:38.853Z,0.93
2022-08-08T10:15:22.005Z,1.00
2022-08-08T10:18:05.573Z,0.93
2022-08-08T10:20:51.150Z,0.97
2022-08-08T10:23:42.177Z,0.90
2022-08-08T10:26:25.960Z,0.87
2022-08-08T10:29:03.727Z,0.90
2022-08-08T10:31:50.235Z,0.80
2022-08-08T10:34:21.308Z,0.90
2022-08-08T10:36:52.405Z,0.70
2022-08-08T10:39:23.267Z,1.07
2022-08-08T10:42:15.528Z,0.70
2022-08-08T10:44:49.405Z,0.80
2022-08-08T10:47:21.075Z,0.97
2022-08-08T10:50:02.361Z,0.83
2022-08-08T10:52:31.690Z,0.80
2022-08-08T10:55:06.280Z,0.50
2022-08-08T10:57:45.253Z,0.90
2022-08-08T11:00:25.096Z,0.80
2022-08-08T11:02:54.260Z,1.10
2022-08-08T11:05:23.364Z,1.07
2022-08-08T11:08:39.050Z,0.90
2022-08-08T11:10:42.401Z,0.70
2022-08-08T11:13:28.605Z,0.90
2022-08-08T11:16:07.715Z,0.90
2022-08-08T11:18:40.084Z,1.03
2022-08-08T11:21:10.252Z,0.70
2022-08-08T11:24:02.191Z,1.03
2022-08-08T11:26:31.501Z,1.10
2022-08-08T11:29:00.250Z,1.07
2022-08-08T11:31:30.040Z,1.10
2022-08-08T11:34:31.692Z,0.90
2022-08-08T11:37:00.492Z,1.20
2022-08-08T11:39:43.336Z,1.00
2022-08-08T11:42:30.750Z,0.60
2022-08-08T11:45:00.923Z,0.90
2022-08-08T11:47:39.690Z,0.80
2022-08-08T11:50:23.318Z,1.00
2022-08-08T11:52:53.465Z,0.70
2022-08-08T11:55:26.857Z,0.97
2022-08-08T11:58:06.879Z,1.00
2022-08-08T12:00:45.300Z,1.23
2022-08-08T12:03:20.923Z,1.10
2022-08-08T12:05:50.092Z,1.33
2022-08-08T12:08:18.442Z,1.37
2022-08-08T12:10:50.301Z,1.67
2022-08-08T12:13:37.703Z,1.30
2022-08-08T12:16:12.846Z,1.30
2022-08-08T12:18:48.955Z,1.37
2022-08-08T12:21:25.695Z,1.40
2022-08-08T12:24:13.329Z,1.90
2022-08-08T12:26:43.061Z,1.77
2022-08-08T12:29:40.555Z,1.77
2022-08-08T12:32:17.301Z,1.43
2022-08-08T12:34:52.972Z,1.60
2022-08-08T12:37:40.607Z,1.57
2022-08-08T12:40:13.819Z,1.30
2022-08-08T12:42:52.044Z,1.30
2022-08-08T12:45:59.229Z,1.40
2022-08-08T12:48:37.422Z,1.17
2022-08-08T12:50:59.674Z,1.33
2022-08-08T12:53:37.841Z,1.43
2022-08-08T12:56:17.918Z,1.30
2022-08-08T12:58:48.816Z,0.97
2022-08-08T13:01:17.266Z,1.53
2022-08-08T13:03:53.662Z,1.00
2022-08-08T13:06:26.559Z,1.23
2022-08-08T13:08:57.027Z,0.80
2022-08-08T13:11:28.698Z,0.93
2022-08-08T13:14:15.560Z,0.83
2022-08-08T13:16:44.130Z,1.03
2022-08-08T13:19:20.271Z,1.00
2022-08-08T13:22:02.572Z,1.33
2022-08-08T13:24:42.135Z,0.87
2022-08-08T13:27:14.971Z,1.00
2022-08-08T13:29:50.599Z,0.93
2022-08-08T13:32:20.853Z,1.20
2022-08-08T13:34:52.590Z,1.17
2022-08-08T13:37:51.769Z,0.70
2022-08-08T13:40:12.454Z,0.80
2022-08-08T13:42:46.554Z,0.60
2022-08-08T13:45:17.092Z,0.90
2022-08-08T13:47:58.187Z,0.93
2022-08-08T13:50:36.901Z,1.10
2022-08-08T13:53:24.255Z,0.77
2022-08-08T13:56:01.849Z,1.00
2022-08-08T13:58:33.082Z,0.80
2022-08-08T14:01:12.061Z,0.87
2022-08-08T14:03:54.099Z,1.00
2022-08-08T14:06:34.167Z,0.60
2022-08-08T14:09:24.278Z,0.63
2022-08-08T14:11:54.591Z,0.60
2022-08-08T14:14:26.280Z,0.87
2022-08-08T14:16:57.309Z,0.80
2022-08-08T14:19:57.232Z,1.00
2022-08-08T14:22:23.627Z,0.70
2022-08-08T14:24:54.806Z,0.73
2022-08-08T14:27:28.838Z,0.83
2022-08-08T14:29:58.410Z,0.80
2022-08-08T14:32:30.023Z,0.70
2022-08-08T14:34:59.372Z,0.70
2022-08-08T14:37:57.062Z,0.63
2022-08-08T14:40:23.965Z,0.80
2022-08-08T14:42:56.734Z,0.60
2022-08-08T14:45:28.993Z,0.60
2022-08-08T14:48:03.063Z,0.67
2022-08-08T14:50:39.127Z,0.70
2022-08-08T14:53:13.632Z,0.60
2022-08-08T14:55:44.525Z,0.60
2022-08-08T14:58:20.117Z,0.60
2022-08-08T15:00:49.211Z,0.73
2022-08-08T15:03:18.674Z,0.50
2022-08-08T15:05:53.822Z,0.93
2022-08-08T15:08:35.513Z,0.90
2022-08-08T15:11:11.195Z,0.83
2022-08-08T15:14:00.814Z,1.00
2022-08-08T15:16:34.563Z,1.07
2022-08-08T15:19:05.872Z,1.03
2022-08-08T15:21:37.997Z,0.90
2022-08-08T15:24:13.469Z,0.97
2022-08-08T15:26:46.693Z,1.20
2022-08-08T15:29:22.741Z,1.13
2022-08-08T15:32:18.258Z,1.30
2022-08-08T15:34:40.928Z,1.13
2022-08-08T15:37:09.336Z,1.40
2022-08-08T15:39:39.696Z,0.80
2022-08-08T15:42:17.849Z,1.30
2022-08-08T15:44:59.816Z,1.10
2022-08-08T15:47:28.136Z,1.00
2022-08-08T15:49:59.691Z,1.00
2022-08-08T15:52:27.996Z,1.07
2022-08-08T15:54:57.123Z,1.03
2022-08-08T15:57:27.696Z,0.77
2022-08-08T16:00:06.876Z,1.00
2022-08-08T16:02:53.224Z,1.10
2022-08-08T16:05:24.273Z,1.30
2022-08-08T16:08:03.478Z,1.20
2022-08-08T16:13:28.723Z,1.00
2022-08-08T16:13:43.479Z,1.17
2022-08-08T16:16:17.255Z,0.90
2022-08-08T16:18:56.723Z,0.93
2022-08-08T16:21:27.715Z,0.73
2022-08-08T16:23:56.596Z,1.23
2022-08-08T16:26:34.179Z,1.20
2022-08-08T16:29:07.898Z,1.60
2022-08-08T16:31:37.607Z,1.20
2022-08-08T16:34:06.805Z,1.10
2022-08-08T16:36:37.463Z,1.30
2022-08-08T16:39:09.996Z,1.20
2022-08-08T16:41:50.354Z,1.00
2022-08-08T16:44:28.112Z,1.10
2022-08-08T16:47:16.227Z,1.40
2022-08-08T16:49:44.563Z,1.10
2022-08-08T16:55:13.975Z,1.30
2022-08-08T16:55:52.237Z,1.10
2022-08-08T16:58:16.059Z,1.10
2022-08-08T17:00:49.173Z,1.40
2022-08-08T17:03:25.118Z,1.00
2022-08-08T17:06:23.518Z,1.20
2022-08-08T17:08:57.492Z,1.33
2022-08-08T17:11:28.479Z,1.30
2022-08-08T17:14:18.799Z,1.17
2022-08-08T17:16:57.348Z,1.37
2022-08-08T17:19:27.057Z,1.10
2022-08-08T17:21:55.496Z,1.47
2022-08-08T17:24:29.807Z,1.63
2022-08-08T17:26:59.178Z,0.90
2022-08-08T17:29:27.674Z,1.17
2022-08-08T17:31:57.856Z,1.03
2022-08-08T17:34:49.472Z,1.50
2022-08-08T17:37:15.051Z,1.03
2022-08-08T17:40:04.568Z,1.23
2022-08-08T17:42:31.803Z,0.97
2022-08-08T17:45:00.787Z,1.30
2022-08-08T17:47:37.495Z,1.10
2022-08-08T17:50:11.728Z,1.00
2022-08-08T17:52:43.293Z,1.17
2022-08-08T17:56:06.972Z,1.00
2022-08-08T17:58:04.111Z,1.17
2022-08-08T18:00:32.629Z,1.10
2022-08-08T18:03:13.626Z,1.20
2022-08-08T18:05:48.148Z,1.00
2022-08-08T18:08:24.964Z,0.83
2022-08-08T18:11:06.642Z,1.03
2022-08-08T18:13:41.638Z,1.00
2022-08-08T18:16:11.257Z,0.90
2022-08-08T18:18:42.777Z,1.30
2022-08-08T18:21:35.486Z,1.10
2022-08-08T18:24:03.182Z,0.70
2022-08-08T18:26:31.924Z,1.20
2022-08-08T18:29:01.786Z,0.90
2022-08-08T18:31:30.129Z,0.70
2022-08-08T18:34:11.241Z,1.00
2022-08-08T18:36:48.442Z,0.80
2022-08-08T18:39:28.650Z,0.70
2022-08-08T18:42:03.374Z,1.37
2022-08-08T18:44:36.050Z,1.80
2022-08-08T18:47:04.927Z,1.77
2022-08-08T18:49:57.249Z,1.50
2022-08-08T18:52:23.634Z,2.13
2022-08-08T18:54:59.408Z,1.67
2022-08-08T18:57:31.717Z,1.63
2022-08-08T19:00:09.443Z,2.17
2022-08-08T19:02:54.667Z,2.47
2022-08-08T19:05:30.607Z,2.73
2022-08-08T19:08:04.174Z,1.90
2022-08-08T19:10:32.629Z,2.77
2022-08-08T19:13:03.488Z,2.70
2022-08-08T19:15:34.036Z,2.63
2022-08-08T19:18:30.664Z,2.70
2022-08-08T19:20:53.258Z,1.77
2022-08-08T19:23:21.865Z,2.03
2022-08-08T19:26:01.497Z,2.00
2022-08-08T19:28:41.517Z,2.10
2022-08-08T19:31:10.081Z,1.80
2022-08-08T19:34:04.691Z,1.50
2022-08-08T19:36:31.526Z,2.30
2022-08-08T19:39:01.859Z,2.10
2022-08-08T19:41:30.298Z,1.70
2022-08-08T19:44:03.052Z,2.30
2022-08-08T19:46:33.192Z,1.43
2022-08-08T19:49:03.172Z,2.00
2022-08-08T19:51:41.486Z,2.40
2022-08-08T19:54:12.021Z,2.03
2022-08-08T19:56:42.156Z,2.30
2022-08-08T19:59:22.354Z,1.63
2022-08-08T20:02:02.023Z,2.03
2022-08-08T20:04:32.403Z,2.10
2022-08-08T20:07:05.407Z,2.40
2022-08-08T20:09:56.310Z,2.70
2022-08-08T20:12:32.291Z,2.30
2022-08-08T20:15:16.436Z,2.13
2022-08-08T20:17:46.316Z,2.20
2022-08-08T20:20:18.981Z,2.10
2022-08-08T20:22:53.971Z,2.60
2022-08-08T20:25:24.613Z,2.30
2022-08-08T20:27:55.153Z,2.73
2022-08-08T20:30:52.716Z,3.20
2022-08-08T20:35:58.931Z,3.10
2022-08-08T20:38:33.427Z,2.23
2022-08-08T20:41:05.804Z,2.77
2022-08-08T20:43:49.312Z,1.83
2022-08-08T20:46:25.431Z,1.60
2022-08-08T20:48:58.529Z,1.97
2022-08-08T20:51:32.322Z,2.07
2022-08-08T20:54:14.051Z,1.90
2022-08-08T20:57:16.291Z,1.27
2022-08-08T20:59:41.171Z,1.13
2022-08-08T21:02:12.767Z,1.40
2022-08-08T21:04:43.635Z,1.87
2022-08-08T21:07:31.174Z,1.73
2022-08-08T21:10:13.036Z,1.87
2022-08-08T21:12:44.595Z,1.40
2022-08-08T21:15:16.185Z,1.53
2022-08-08T21:18:03.029Z,1.50
2022-08-08T21:20:34.123Z,1.33
2022-08-08T21:23:03.022Z,1.30
2022-08-08T21:25:36.131Z,1.07
2022-08-08T21:28:16.388Z,1.90
2022-08-08T21:30:49.718Z,1.63
2022-08-08T21:33:22.605Z,1.60
2022-08-08T21:36:13.746Z,2.17
2022-08-08T21:38:39.533Z,2.33
2022-08-08T21:41:09.277Z,2.13
2022-08-08T21:43:57.405Z,2.27
2022-08-08T21:48:06.010Z,2.00
2022-08-08T21:49:16.642Z,1.77
2022-08-08T21:54:33.037Z,1.50
2022-08-08T21:54:54.739Z,1.70
2022-08-08T21:57:23.347Z,1.53
2022-08-08T22:00:03.579Z,1.80
2022-08-08T22:02:33.995Z,5.43
2022-08-08T22:05:02.532Z,13.10
2022-08-08T22:07:40.316Z,15.30
2022-08-08T22:10:09.886Z,15.70
2022-08-08T22:12:49.356Z,14.73
2022-08-08T22:15:18.208Z,13.37
2022-08-08T22:17:47.294Z,9.27
2022-08-08T22:20:18.648Z,6.43
2022-08-08T22:22:52.456Z,4.30
2022-08-08T22:25:25.156Z,3.63
2022-08-08T22:28:02.806Z,3.03
2022-08-08T22:30:43.270Z,3.23
2022-08-08T22:33:22.186Z,2.73
2022-08-08T22:36:12.291Z,2.07
2022-08-08T22:38:48.225Z,1.60
2022-08-08T22:41:21.480Z,1.70
2022-08-08T22:44:02.953Z,1.43
2022-08-08T22:46:34.547Z,1.37
2022-08-08T22:49:09.157Z,1.17
2022-08-08T22:51:45.871Z,1.30
2022-08-08T22:54:33.781Z,0.93
2022-08-08T22:57:11.560Z,0.70
2022-08-08T22:59:52.711Z,1.00
2022-08-08T23:02:29.698Z,1.00
2022-08-08T23:05:07.572Z,0.63
2022-08-08T23:07:51.580Z,0.70
2022-08-08T23:10:26.825Z,1.20
2022-08-08T23:12:56.027Z,1.30
2022-08-08T23:16:39.539Z,1.10
2022-08-08T23:18:14.458Z,0.80
2022-08-08T23:20:43.222Z,0.70
2022-08-08T23:23:12.182Z,0.80
2022-08-08T23:25:48.492Z,0.57
2022-08-08T23:28:17.688Z,0.50
2022-08-08T23:30:48.114Z,0.50
2022-08-08T23:33:19.041Z,0.40
2022-08-08T23:35:59.025Z,0.50
2022-08-08T23:38:36.444Z,0.70
2022-08-08T23:41:17.433Z,0.67
2022-08-08T23:43:54.326Z,0.83
2022-08-08T23:49:05.199Z,0.43
2022-08-08T23:49:19.003Z,0.43
2022-08-08T23:52:05.355Z,0.70
2022-08-08T23:54:42.664Z,0.70
2022-08-08T23:57:27.216Z,0.50
